sensor_id;sensor_type;location;lat;lon;timestamp;pressure;altitude;pressure_sealevel;temperature;humidity
20023;BME280;10172;42.054;24.546;2024-03-23T00:54:36;98356.13;;;5.38;55.22
20023;BME280;10172;42.054;24.546;2024-03-23T00:57:01;98363.28;;;5.06;56.17
20023;BME280;10172;42.054;24.546;2024-03-23T00:59:27;98353.97;;;5.35;54.88
20023;BME280;10172;42.054;24.546;2024-03-23T01:01:54;98340.50;;;5.79;53.54
20023;BME280;10172;42.054;24.546;2024-03-23T01:04:20;98350.00;;;4.91;56.30
20023;BME280;10172;42.054;24.546;2024-03-23T01:06:45;98347.75;;;5.46;54.92
20023;BME280;10172;42.054;24.546;2024-03-23T01:09:10;98340.66;;;5.57;53.67
20023;BME280;10172;42.054;24.546;2024-03-23T01:11:36;98357.09;;;5.74;53.33
20023;BME280;10172;42.054;24.546;2024-03-23T01:14:02;98352.72;;;5.43;54.75
20023;BME280;10172;42.054;24.546;2024-03-23T01:16:28;98342.31;;;5.73;53.05
20023;BME280;10172;42.054;24.546;2024-03-23T01:18:53;98348.56;;;6.14;52.58
20023;BME280;10172;42.054;24.546;2024-03-23T01:21:18;98348.53;;;5.94;52.57
20023;BME280;10172;42.054;24.546;2024-03-23T01:23:44;98356.97;;;5.96;52.51
20023;BME280;10172;42.054;24.546;2024-03-23T01:26:10;98354.59;;;5.47;53.98
20023;BME280;10172;42.054;24.546;2024-03-23T01:28:35;98358.53;;;5.92;53.13
20023;BME280;10172;42.054;24.546;2024-03-23T01:31:00;98348.44;;;5.84;53.15
20023;BME280;10172;42.054;24.546;2024-03-23T01:33:26;98365.16;;;5.11;55.29
20023;BME280;10172;42.054;24.546;2024-03-23T01:35:51;98368.59;;;5.16;55.52
20023;BME280;10172;42.054;24.546;2024-03-23T01:38:16;98357.31;;;5.63;53.72
20023;BME280;10172;42.054;24.546;2024-03-23T01:40:42;98361.38;;;5.38;54.70
20023;BME280;10172;42.054;24.546;2024-03-23T01:43:08;98364.72;;;5.24;54.67
20023;BME280;10172;42.054;24.546;2024-03-23T01:45:33;98357.03;;;5.59;53.70
20023;BME280;10172;42.054;24.546;2024-03-23T01:47:59;98354.56;;;5.84;53.24
20023;BME280;10172;42.054;24.546;2024-03-23T01:50:25;98362.44;;;4.16;58.94
20023;BME280;10172;42.054;24.546;2024-03-23T01:52:52;98360.13;;;5.09;56.17
20023;BME280;10172;42.054;24.546;2024-03-23T01:55:17;98367.00;;;4.78;57.06
20023;BME280;10172;42.054;24.546;2024-03-23T01:57:43;98366.78;;;4.85;56.50
20023;BME280;10172;42.054;24.546;2024-03-23T02:00:09;98366.38;;;4.98;56.59
20023;BME280;10172;42.054;24.546;2024-03-23T02:02:43;98362.84;;;4.88;56.56
20023;BME280;10172;42.054;24.546;2024-03-23T02:05:09;98366.78;;;4.05;59.82
20023;BME280;10172;42.054;24.546;2024-03-23T02:07:35;98359.16;;;4.03;59.64
20023;BME280;10172;42.054;24.546;2024-03-23T02:10:01;98359.41;;;3.80;60.63
20023;BME280;10172;42.054;24.546;2024-03-23T02:12:26;98360.84;;;3.33;62.75
20023;BME280;10172;42.054;24.546;2024-03-23T02:14:51;98357.44;;;3.49;62.07
20023;BME280;10172;42.054;24.546;2024-03-23T02:17:17;98355.97;;;4.01;60.40
20023;BME280;10172;42.054;24.546;2024-03-23T02:19:42;98354.06;;;3.54;61.44
20023;BME280;10172;42.054;24.546;2024-03-23T02:22:07;98355.97;;;4.01;60.33
20023;BME280;10172;42.054;24.546;2024-03-23T02:24:35;98338.88;;;4.26;59.12
20023;BME280;10172;42.054;24.546;2024-03-23T02:27:02;98350.41;;;4.78;56.72
20023;BME280;10172;42.054;24.546;2024-03-23T02:29:27;98343.09;;;4.53;57.51
20023;BME280;10172;42.054;24.546;2024-03-23T02:31:52;98351.19;;;5.10;55.69
20023;BME280;10172;42.054;24.546;2024-03-23T02:34:18;98352.91;;;4.09;59.56
20023;BME280;10172;42.054;24.546;2024-03-23T02:36:43;98342.75;;;4.45;58.21
20023;BME280;10172;42.054;24.546;2024-03-23T02:39:08;98340.75;;;4.89;56.77
20023;BME280;10172;42.054;24.546;2024-03-23T02:41:34;98357.59;;;4.29;57.96
20023;BME280;10172;42.054;24.546;2024-03-23T02:43:59;98353.88;;;4.25;58.59
20023;BME280;10172;42.054;24.546;2024-03-23T02:46:24;98349.03;;;4.17;59.10
20023;BME280;10172;42.054;24.546;2024-03-23T02:48:50;98356.94;;;3.95;59.00
20023;BME280;10172;42.054;24.546;2024-03-23T02:51:15;98350.56;;;4.40;58.25
20023;BME280;10172;42.054;24.546;2024-03-23T02:53:41;98358.22;;;3.71;60.09
20023;BME280;10172;42.054;24.546;2024-03-23T02:56:06;98348.63;;;3.60;60.92
20023;BME280;10172;42.054;24.546;2024-03-23T02:58:32;98350.72;;;4.28;58.22
20023;BME280;10172;42.054;24.546;2024-03-23T03:00:57;98357.75;;;3.36;61.31
20023;BME280;10172;42.054;24.546;2024-03-23T03:03:23;98345.09;;;3.71;60.08
20023;BME280;10172;42.054;24.546;2024-03-23T03:05:54;98349.91;;;4.01;59.94
20023;BME280;10172;42.054;24.546;2024-03-23T03:08:20;98349.59;;;3.76;60.06
20023;BME280;10172;42.054;24.546;2024-03-23T03:10:45;98344.00;;;3.67;61.12
20023;BME280;10172;42.054;24.546;2024-03-23T03:13:10;98346.06;;;4.08;59.34
20023;BME280;10172;42.054;24.546;2024-03-23T03:15:36;98340.59;;;4.15;59.43
20023;BME280;10172;42.054;24.546;2024-03-23T03:18:01;98348.28;;;3.52;61.15
20023;BME280;10172;42.054;24.546;2024-03-23T03:20:26;98340.94;;;3.75;60.90
20023;BME280;10172;42.054;24.546;2024-03-23T03:22:52;98339.16;;;3.81;60.60
20023;BME280;10172;42.054;24.546;2024-03-23T03:25:18;98339.81;;;3.28;62.08
20023;BME280;10172;42.054;24.546;2024-03-23T03:27:44;98322.94;;;3.07;63.46
20023;BME280;10172;42.054;24.546;2024-03-23T03:30:09;98319.00;;;3.65;62.01
20023;BME280;10172;42.054;24.546;2024-03-23T03:32:35;98327.22;;;3.73;61.00
20023;BME280;10172;42.054;24.546;2024-03-23T03:35:00;98332.88;;;4.03;59.67
20023;BME280;10172;42.054;24.546;2024-03-23T03:37:25;98345.38;;;3.53;61.41
20023;BME280;10172;42.054;24.546;2024-03-23T03:39:51;98341.38;;;3.67;61.36
20023;BME280;10172;42.054;24.546;2024-03-23T03:42:16;98340.25;;;4.33;58.57
20023;BME280;10172;42.054;24.546;2024-03-23T03:44:42;98343.81;;;3.95;59.31
20023;BME280;10172;42.054;24.546;2024-03-23T03:47:07;98343.25;;;4.73;56.74
20023;BME280;10172;42.054;24.546;2024-03-23T03:49:32;98340.09;;;3.70;60.29
20023;BME280;10172;42.054;24.546;2024-03-23T03:51:58;98340.53;;;4.32;58.73
20023;BME280;10172;42.054;24.546;2024-03-23T03:54:23;98349.50;;;3.87;59.52
20023;BME280;10172;42.054;24.546;2024-03-23T03:56:48;98350.06;;;3.89;60.58
20023;BME280;10172;42.054;24.546;2024-03-23T03:59:15;98351.78;;;4.27;58.45
20023;BME280;10172;42.054;24.546;2024-03-23T04:01:40;98353.25;;;4.45;58.05
20023;BME280;10172;42.054;24.546;2024-03-23T04:04:06;98347.78;;;3.98;59.35
20023;BME280;10172;42.054;24.546;2024-03-23T04:06:31;98345.78;;;3.45;61.39
20023;BME280;10172;42.054;24.546;2024-03-23T04:08:58;98352.53;;;4.23;58.80
20023;BME280;10172;42.054;24.546;2024-03-23T04:11:23;98358.72;;;4.65;57.39
20023;BME280;10172;42.054;24.546;2024-03-23T04:13:49;98364.53;;;4.67;56.89
20023;BME280;10172;42.054;24.546;2024-03-23T04:16:27;98355.81;;;4.93;56.44
20023;BME280;10172;42.054;24.546;2024-03-23T04:18:53;98360.94;;;4.78;56.94
20023;BME280;10172;42.054;24.546;2024-03-23T04:21:19;98361.94;;;4.72;56.68
20023;BME280;10172;42.054;24.546;2024-03-23T04:23:44;98370.47;;;4.84;56.20
20023;BME280;10172;42.054;24.546;2024-03-23T04:26:09;98360.06;;;4.67;56.50
20023;BME280;10172;42.054;24.546;2024-03-23T04:28:35;98370.09;;;3.35;60.62
20023;BME280;10172;42.054;24.546;2024-03-23T04:31:04;98369.22;;;3.47;61.43
20023;BME280;10172;42.054;24.546;2024-03-23T04:33:29;98370.88;;;4.18;58.69
20023;BME280;10172;42.054;24.546;2024-03-23T04:35:55;98366.09;;;4.63;56.85
20023;BME280;10172;42.054;24.546;2024-03-23T04:38:20;98367.25;;;4.77;56.35
20023;BME280;10172;42.054;24.546;2024-03-23T04:40:54;98370.31;;;4.96;56.03
20023;BME280;10172;42.054;24.546;2024-03-23T04:43:19;98368.84;;;4.78;56.13
20023;BME280;10172;42.054;24.546;2024-03-23T04:45:44;98377.97;;;3.74;60.00
20023;BME280;10172;42.054;24.546;2024-03-23T04:48:10;98365.31;;;3.92;59.83
20023;BME280;10172;42.054;24.546;2024-03-23T04:50:35;98378.19;;;4.37;58.28
20023;BME280;10172;42.054;24.546;2024-03-23T04:53:01;98371.63;;;3.91;59.38
20023;BME280;10172;42.054;24.546;2024-03-23T04:55:26;98376.06;;;4.61;57.41
20023;BME280;10172;42.054;24.546;2024-03-23T04:57:51;98374.03;;;4.68;57.49
20023;BME280;10172;42.054;24.546;2024-03-23T05:00:17;98375.09;;;4.72;57.54
20023;BME280;10172;42.054;24.546;2024-03-23T05:02:44;98379.31;;;4.20;58.91
20023;BME280;10172;42.054;24.546;2024-03-23T05:05:09;98379.34;;;4.73;56.79
20023;BME280;10172;42.054;24.546;2024-03-23T05:07:35;98365.78;;;4.91;56.25
20023;BME280;10172;42.054;24.546;2024-03-23T05:10:00;98370.03;;;3.90;60.19
20023;BME280;10172;42.054;24.546;2024-03-23T05:12:26;98374.06;;;4.46;58.68
20023;BME280;10172;42.054;24.546;2024-03-23T05:14:51;98371.28;;;4.85;57.01
20023;BME280;10172;42.054;24.546;2024-03-23T05:17:17;98373.75;;;4.96;56.70
20023;BME280;10172;42.054;24.546;2024-03-23T05:19:42;98367.94;;;4.94;56.68
20023;BME280;10172;42.054;24.546;2024-03-23T05:22:07;98369.72;;;5.25;56.15
20023;BME280;10172;42.054;24.546;2024-03-23T05:24:33;98361.97;;;5.09;56.83
20023;BME280;10172;42.054;24.546;2024-03-23T05:26:58;98362.63;;;5.78;55.10
20023;BME280;10172;42.054;24.546;2024-03-23T05:29:24;98364.25;;;5.32;56.32
20023;BME280;10172;42.054;24.546;2024-03-23T05:31:51;98358.16;;;5.78;55.39
20023;BME280;10172;42.054;24.546;2024-03-23T05:34:17;98363.03;;;5.49;55.23
20023;BME280;10172;42.054;24.546;2024-03-23T05:36:42;98354.94;;;5.66;54.85
20023;BME280;10172;42.054;24.546;2024-03-23T05:39:08;98351.81;;;5.69;54.39
20023;BME280;10172;42.054;24.546;2024-03-23T05:41:33;98352.38;;;5.76;54.25
20023;BME280;10172;42.054;24.546;2024-03-23T05:44:01;98353.56;;;6.05;53.69
20023;BME280;10172;42.054;24.546;2024-03-23T05:46:26;98354.38;;;6.06;53.10
20023;BME280;10172;42.054;24.546;2024-03-23T05:48:52;98348.56;;;6.09;53.07
20023;BME280;10172;42.054;24.546;2024-03-23T05:51:17;98351.81;;;6.36;52.30
20023;BME280;10172;42.054;24.546;2024-03-23T05:53:43;98349.09;;;6.06;53.34
20023;BME280;10172;42.054;24.546;2024-03-23T05:56:08;98343.63;;;6.43;53.09
20023;BME280;10172;42.054;24.546;2024-03-23T05:58:34;98347.06;;;6.43;52.79
20023;BME280;10172;42.054;24.546;2024-03-23T06:01:01;98346.25;;;6.38;52.80
20023;BME280;10172;42.054;24.546;2024-03-23T06:03:27;98354.53;;;6.92;49.97
20023;BME280;10172;42.054;24.546;2024-03-23T06:05:53;98361.88;;;6.90;50.42
20023;BME280;10172;42.054;24.546;2024-03-23T06:08:18;98353.69;;;7.11;49.66
20023;BME280;10172;42.054;24.546;2024-03-23T06:10:48;98354.44;;;7.52;48.66
20023;BME280;10172;42.054;24.546;2024-03-23T06:13:14;98362.94;;;7.34;49.93
20023;BME280;10172;42.054;24.546;2024-03-23T06:15:39;98349.81;;;7.93;48.58
20023;BME280;10172;42.054;24.546;2024-03-23T06:18:05;98358.81;;;7.87;48.09
20023;BME280;10172;42.054;24.546;2024-03-23T06:20:30;98359.38;;;7.84;48.09
20023;BME280;10172;42.054;24.546;2024-03-23T06:22:56;98351.66;;;8.51;46.58
20023;BME280;10172;42.054;24.546;2024-03-23T06:25:22;98352.41;;;8.57;45.96
20023;BME280;10172;42.054;24.546;2024-03-23T06:27:47;98352.41;;;8.96;45.42
20023;BME280;10172;42.054;24.546;2024-03-23T06:30:13;98347.66;;;8.93;45.07
20023;BME280;10172;42.054;24.546;2024-03-23T06:32:38;98354.97;;;9.34;44.23
20023;BME280;10172;42.054;24.546;2024-03-23T06:35:04;98368.09;;;9.49;42.99
20023;BME280;10172;42.054;24.546;2024-03-23T06:37:36;98358.94;;;9.61;43.10
20023;BME280;10172;42.054;24.546;2024-03-23T06:40:02;98355.19;;;10.14;42.16
20023;BME280;10172;42.054;24.546;2024-03-23T06:42:29;98361.44;;;9.76;42.17
20023;BME280;10172;42.054;24.546;2024-03-23T06:44:55;98359.03;;;9.79;41.94
20023;BME280;10172;42.054;24.546;2024-03-23T06:47:20;98359.53;;;9.58;43.05
20023;BME280;10172;42.054;24.546;2024-03-23T06:49:45;98352.25;;;10.10;42.68
20023;BME280;10172;42.054;24.546;2024-03-23T06:52:11;98350.44;;;10.85;41.18
20023;BME280;10172;42.054;24.546;2024-03-23T06:54:36;98356.78;;;10.71;40.95
20023;BME280;10172;42.054;24.546;2024-03-23T06:57:01;98359.44;;;10.52;40.13
20023;BME280;10172;42.054;24.546;2024-03-23T06:59:28;98346.78;;;10.81;40.04
20023;BME280;10172;42.054;24.546;2024-03-23T07:01:53;98356.22;;;11.06;39.55
20023;BME280;10172;42.054;24.546;2024-03-23T07:04:18;98357.28;;;11.37;38.94
20023;BME280;10172;42.054;24.546;2024-03-23T07:06:45;98356.66;;;11.73;37.67
20023;BME280;10172;42.054;24.546;2024-03-23T07:09:11;98352.13;;;11.87;36.83
20023;BME280;10172;42.054;24.546;2024-03-23T07:11:37;98355.09;;;11.26;38.71
20023;BME280;10172;42.054;24.546;2024-03-23T07:14:02;98353.03;;;11.82;37.87
20023;BME280;10172;42.054;24.546;2024-03-23T07:16:28;98355.28;;;11.89;37.40
20023;BME280;10172;42.054;24.546;2024-03-23T07:18:53;98345.81;;;11.96;37.76
20023;BME280;10172;42.054;24.546;2024-03-23T07:21:19;98354.13;;;11.81;38.24
20023;BME280;10172;42.054;24.546;2024-03-23T07:23:44;98346.63;;;11.97;38.03
20023;BME280;10172;42.054;24.546;2024-03-23T07:26:11;98350.97;;;12.78;36.32
20023;BME280;10172;42.054;24.546;2024-03-23T07:28:36;98352.41;;;12.12;37.65
20023;BME280;10172;42.054;24.546;2024-03-23T07:31:06;98349.53;;;12.22;37.63
20023;BME280;10172;42.054;24.546;2024-03-23T07:33:34;98344.22;;;12.58;36.71
20023;BME280;10172;42.054;24.546;2024-03-23T07:36:00;98345.50;;;12.61;36.54
20023;BME280;10172;42.054;24.546;2024-03-23T07:38:27;98340.66;;;12.63;37.03
20023;BME280;10172;42.054;24.546;2024-03-23T07:41:02;98343.50;;;12.66;37.14
20023;BME280;10172;42.054;24.546;2024-03-23T07:43:28;98340.44;;;12.37;37.45
20023;BME280;10172;42.054;24.546;2024-03-23T07:45:53;98337.19;;;12.27;37.78
20023;BME280;10172;42.054;24.546;2024-03-23T07:48:21;98346.13;;;12.44;37.50
20023;BME280;10172;42.054;24.546;2024-03-23T07:51:02;98339.59;;;13.08;36.34
20023;BME280;10172;42.054;24.546;2024-03-23T07:53:28;98343.16;;;12.46;37.29
20023;BME280;10172;42.054;24.546;2024-03-23T07:55:58;98341.06;;;12.56;37.20
20023;BME280;10172;42.054;24.546;2024-03-23T07:58:24;98336.47;;;13.37;36.31
20023;BME280;10172;42.054;24.546;2024-03-23T08:00:50;98325.34;;;13.43;35.73
20023;BME280;10172;42.054;24.546;2024-03-23T08:03:15;98328.00;;;13.13;36.15
20023;BME280;10172;42.054;24.546;2024-03-23T08:05:41;98325.00;;;13.36;34.78
20023;BME280;10172;42.054;24.546;2024-03-23T08:08:06;98329.38;;;13.32;35.88
20023;BME280;10172;42.054;24.546;2024-03-23T08:10:32;98325.28;;;12.60;36.63
20023;BME280;10172;42.054;24.546;2024-03-23T08:12:57;98324.81;;;12.44;37.81
20023;BME280;10172;42.054;24.546;2024-03-23T08:15:22;98318.25;;;13.30;35.94
20023;BME280;10172;42.054;24.546;2024-03-23T08:17:49;98315.09;;;13.68;36.90
20023;BME280;10172;42.054;24.546;2024-03-23T08:20:14;98313.59;;;13.44;36.22
20023;BME280;10172;42.054;24.546;2024-03-23T08:22:39;98301.31;;;13.35;36.33
20023;BME280;10172;42.054;24.546;2024-03-23T08:25:05;98307.19;;;13.54;35.69
20023;BME280;10172;42.054;24.546;2024-03-23T08:27:31;98306.59;;;13.66;35.57
20023;BME280;10172;42.054;24.546;2024-03-23T08:29:56;98296.22;;;14.29;34.78
20023;BME280;10172;42.054;24.546;2024-03-23T08:32:21;98295.28;;;14.34;34.81
20023;BME280;10172;42.054;24.546;2024-03-23T08:34:47;98290.88;;;14.29;35.36
20023;BME280;10172;42.054;24.546;2024-03-23T08:37:12;98284.78;;;14.46;34.81
20023;BME280;10172;42.054;24.546;2024-03-23T08:39:37;98290.44;;;14.61;34.84
20023;BME280;10172;42.054;24.546;2024-03-23T08:42:03;98279.16;;;15.19;33.71
20023;BME280;10172;42.054;24.546;2024-03-23T08:44:28;98273.06;;;15.02;33.91
20023;BME280;10172;42.054;24.546;2024-03-23T08:46:56;98281.66;;;15.33;32.45
20023;BME280;10172;42.054;24.546;2024-03-23T08:49:21;98278.66;;;15.72;33.09
20023;BME280;10172;42.054;24.546;2024-03-23T08:51:46;98273.28;;;15.81;34.14
20023;BME280;10172;42.054;24.546;2024-03-23T08:54:12;98263.88;;;15.66;32.04
20023;BME280;10172;42.054;24.546;2024-03-23T08:56:37;98271.22;;;15.40;32.61
20023;BME280;10172;42.054;24.546;2024-03-23T08:59:02;98265.53;;;15.41;33.15
20023;BME280;10172;42.054;24.546;2024-03-23T09:01:28;98256.84;;;15.82;31.53
20023;BME280;10172;42.054;24.546;2024-03-23T09:03:53;98257.84;;;15.78;31.71
20023;BME280;10172;42.054;24.546;2024-03-23T09:06:19;98257.59;;;15.91;31.95
20023;BME280;10172;42.054;24.546;2024-03-23T09:08:44;98249.81;;;16.93;31.12
20023;BME280;10172;42.054;24.546;2024-03-23T09:11:11;98243.13;;;16.99;29.76
20023;BME280;10172;42.054;24.546;2024-03-23T09:13:38;98242.91;;;16.18;30.97
20023;BME280;10172;42.054;24.546;2024-03-23T09:16:04;98242.78;;;16.56;31.43
20023;BME280;10172;42.054;24.546;2024-03-23T09:18:34;98238.78;;;16.95;30.30
20023;BME280;10172;42.054;24.546;2024-03-23T09:21:04;98239.97;;;16.85;30.67
20023;BME280;10172;42.054;24.546;2024-03-23T09:23:29;98235.59;;;16.80;30.16
20023;BME280;10172;42.054;24.546;2024-03-23T09:25:55;98230.75;;;17.43;29.54
20023;BME280;10172;42.054;24.546;2024-03-23T09:28:22;98226.84;;;16.71;30.58
20023;BME280;10172;42.054;24.546;2024-03-23T09:30:47;98223.38;;;16.71;30.52
20023;BME280;10172;42.054;24.546;2024-03-23T09:33:13;98226.91;;;16.96;30.24
20023;BME280;10172;42.054;24.546;2024-03-23T09:35:39;98222.38;;;17.44;30.08
20023;BME280;10172;42.054;24.546;2024-03-23T09:38:05;98220.03;;;17.67;29.52
20023;BME280;10172;42.054;24.546;2024-03-23T09:40:32;98215.00;;;17.78;28.87
20023;BME280;10172;42.054;24.546;2024-03-23T09:42:58;98212.97;;;17.87;28.14
20023;BME280;10172;42.054;24.546;2024-03-23T09:45:27;98215.59;;;18.51;27.94
20023;BME280;10172;42.054;24.546;2024-03-23T09:47:54;98205.38;;;17.65;29.16
20023;BME280;10172;42.054;24.546;2024-03-23T09:50:20;98202.47;;;17.57;29.07
20023;BME280;10172;42.054;24.546;2024-03-23T09:52:46;98194.16;;;17.50;27.77
20023;BME280;10172;42.054;24.546;2024-03-23T09:55:11;98195.34;;;18.01;28.34
20023;BME280;10172;42.054;24.546;2024-03-23T09:57:37;98192.91;;;18.24;27.78
20023;BME280;10172;42.054;24.546;2024-03-23T10:00:03;98177.72;;;18.71;27.33
20023;BME280;10172;42.054;24.546;2024-03-23T10:02:29;98178.78;;;19.14;25.38
20023;BME280;10172;42.054;24.546;2024-03-23T10:04:54;98183.97;;;18.75;25.70
20023;BME280;10172;42.054;24.546;2024-03-23T10:07:20;98175.72;;;19.00;25.31
20023;BME280;10172;42.054;24.546;2024-03-23T10:09:47;98175.25;;;18.66;25.31
20023;BME280;10172;42.054;24.546;2024-03-23T10:12:16;98166.56;;;18.57;24.69
20023;BME280;10172;42.054;24.546;2024-03-23T10:14:42;98164.34;;;18.90;24.59
20023;BME280;10172;42.054;24.546;2024-03-23T10:19:39;98162.69;;;19.48;23.66
20023;BME280;10172;42.054;24.546;2024-03-23T10:22:04;98158.00;;;19.80;22.44
20023;BME280;10172;42.054;24.546;2024-03-23T10:24:29;98153.38;;;19.30;21.00
20023;BME280;10172;42.054;24.546;2024-03-23T10:26:58;98148.41;;;19.83;22.38
20023;BME280;10172;42.054;24.546;2024-03-23T10:29:23;98145.25;;;19.96;22.54
20023;BME280;10172;42.054;24.546;2024-03-23T10:31:51;98142.59;;;20.35;21.91
20023;BME280;10172;42.054;24.546;2024-03-23T10:34:16;98139.38;;;20.29;21.40
20023;BME280;10172;42.054;24.546;2024-03-23T10:36:42;98132.34;;;19.86;22.18
20023;BME280;10172;42.054;24.546;2024-03-23T10:39:09;98127.78;;;20.09;21.78
20023;BME280;10172;42.054;24.546;2024-03-23T10:41:36;98132.13;;;20.75;22.33
20023;BME280;10172;42.054;24.546;2024-03-23T10:44:02;98125.94;;;20.13;21.99
20023;BME280;10172;42.054;24.546;2024-03-23T10:46:27;98124.88;;;20.18;21.03
20023;BME280;10172;42.054;24.546;2024-03-23T10:48:53;98122.56;;;20.81;21.49
20023;BME280;10172;42.054;24.546;2024-03-23T10:51:19;98110.91;;;20.54;20.87
20023;BME280;10172;42.054;24.546;2024-03-23T10:53:44;98114.13;;;20.60;21.48
20023;BME280;10172;42.054;24.546;2024-03-23T10:56:12;98101.66;;;20.13;21.15
20023;BME280;10172;42.054;24.546;2024-03-23T10:58:43;98100.81;;;20.09;21.48
20023;BME280;10172;42.054;24.546;2024-03-23T11:01:12;98094.84;;;20.61;22.76
20023;BME280;10172;42.054;24.546;2024-03-23T11:03:39;98095.06;;;21.21;21.62
20023;BME280;10172;42.054;24.546;2024-03-23T11:06:06;98092.63;;;21.38;21.41
20023;BME280;10172;42.054;24.546;2024-03-23T11:08:34;98078.63;;;19.78;23.46
20023;BME280;10172;42.054;24.546;2024-03-23T11:11:20;98073.53;;;20.14;23.31
20023;BME280;10172;42.054;24.546;2024-03-23T11:13:50;98074.22;;;20.50;22.75
20023;BME280;10172;42.054;24.546;2024-03-23T11:16:21;98063.13;;;20.55;21.73
20023;BME280;10172;42.054;24.546;2024-03-23T11:18:47;98061.81;;;20.68;21.98
20023;BME280;10172;42.054;24.546;2024-03-23T11:24:16;98044.22;;;20.77;21.42
20023;BME280;10172;42.054;24.546;2024-03-23T11:26:41;98045.53;;;20.64;21.48
20023;BME280;10172;42.054;24.546;2024-03-23T11:29:15;98042.16;;;20.06;22.04
20023;BME280;10172;42.054;24.546;2024-03-23T11:31:49;98038.97;;;20.88;21.44
20023;BME280;10172;42.054;24.546;2024-03-23T11:34:15;98027.66;;;20.34;21.91
20023;BME280;10172;42.054;24.546;2024-03-23T11:36:41;98023.50;;;21.11;22.03
20023;BME280;10172;42.054;24.546;2024-03-23T11:39:17;98016.06;;;20.78;21.45
20023;BME280;10172;42.054;24.546;2024-03-23T11:41:49;98007.66;;;20.83;20.77
20023;BME280;10172;42.054;24.546;2024-03-23T11:44:19;98007.25;;;20.59;21.01
20023;BME280;10172;42.054;24.546;2024-03-23T11:46:45;98005.34;;;21.08;20.55
20023;BME280;10172;42.054;24.546;2024-03-23T11:49:26;97997.22;;;21.38;19.52
20023;BME280;10172;42.054;24.546;2024-03-23T11:51:53;97984.50;;;21.72;20.03
20023;BME280;10172;42.054;24.546;2024-03-23T11:54:25;97984.22;;;22.17;18.22
20023;BME280;10172;42.054;24.546;2024-03-23T11:56:55;97984.81;;;21.04;19.06
20023;BME280;10172;42.054;24.546;2024-03-23T11:59:41;97987.03;;;19.62;18.72
20023;BME280;10172;42.054;24.546;2024-03-23T12:02:11;97975.31;;;20.15;18.24
20023;BME280;10172;42.054;24.546;2024-03-23T12:04:37;97977.03;;;20.72;18.16
20023;BME280;10172;42.054;24.546;2024-03-23T12:07:17;97959.59;;;21.55;17.35
20023;BME280;10172;42.054;24.546;2024-03-23T12:10:04;97952.31;;;21.26;18.06
20023;BME280;10172;42.054;24.546;2024-03-23T12:12:31;97957.53;;;20.60;17.94
20023;BME280;10172;42.054;24.546;2024-03-23T12:15:07;97962.31;;;20.70;18.24
20023;BME280;10172;42.054;24.546;2024-03-23T12:17:34;97949.06;;;20.87;18.58
20023;BME280;10172;42.054;24.546;2024-03-23T12:20:03;97952.63;;;20.95;17.08
20023;BME280;10172;42.054;24.546;2024-03-23T12:22:28;97935.78;;;21.35;16.60
20023;BME280;10172;42.054;24.546;2024-03-23T12:24:55;97941.88;;;21.58;18.29
20023;BME280;10172;42.054;24.546;2024-03-23T12:27:20;97930.34;;;21.65;17.45
20023;BME280;10172;42.054;24.546;2024-03-23T12:29:45;97931.72;;;21.18;16.91
20023;BME280;10172;42.054;24.546;2024-03-23T12:32:12;97920.38;;;21.72;16.39
20023;BME280;10172;42.054;24.546;2024-03-23T12:34:38;97920.53;;;21.16;17.18
20023;BME280;10172;42.054;24.546;2024-03-23T12:37:04;97918.13;;;21.41;16.87
20023;BME280;10172;42.054;24.546;2024-03-23T12:39:29;97906.94;;;21.42;16.37
20023;BME280;10172;42.054;24.546;2024-03-23T12:41:55;97913.19;;;21.50;16.53
20023;BME280;10172;42.054;24.546;2024-03-23T12:44:20;97901.66;;;21.20;16.58
20023;BME280;10172;42.054;24.546;2024-03-23T12:46:46;97908.84;;;20.82;17.45
20023;BME280;10172;42.054;24.546;2024-03-23T12:49:11;97895.78;;;21.14;18.31
20023;BME280;10172;42.054;24.546;2024-03-23T12:51:37;97887.16;;;21.35;17.60
20023;BME280;10172;42.054;24.546;2024-03-23T12:54:03;97895.13;;;21.57;17.96
20023;BME280;10172;42.054;24.546;2024-03-23T12:56:28;97881.50;;;21.14;17.84
20023;BME280;10172;42.054;24.546;2024-03-23T12:58:54;97881.69;;;20.98;17.74
20023;BME280;10172;42.054;24.546;2024-03-23T13:01:22;97871.88;;;21.16;18.54
20023;BME280;10172;42.054;24.546;2024-03-23T13:03:48;97871.06;;;21.45;17.82
20023;BME280;10172;42.054;24.546;2024-03-23T13:06:14;97873.94;;;21.63;18.59
20023;BME280;10172;42.054;24.546;2024-03-23T13:08:39;97865.06;;;21.63;18.18
20023;BME280;10172;42.054;24.546;2024-03-23T13:11:08;97864.88;;;21.08;18.24
20023;BME280;10172;42.054;24.546;2024-03-23T13:13:38;97861.31;;;21.37;18.21
20023;BME280;10172;42.054;24.546;2024-03-23T13:16:04;97856.66;;;21.75;18.75
20023;BME280;10172;42.054;24.546;2024-03-23T13:18:30;97850.69;;;21.58;17.12
20023;BME280;10172;42.054;24.546;2024-03-23T13:20:56;97848.09;;;21.29;17.54
20023;BME280;10172;42.054;24.546;2024-03-23T13:23:21;97849.81;;;20.81;19.19
20023;BME280;10172;42.054;24.546;2024-03-23T13:28:18;97846.88;;;21.59;18.51
20023;BME280;10172;42.054;24.546;2024-03-23T13:30:54;97836.16;;;21.70;17.99
20023;BME280;10172;42.054;24.546;2024-03-23T13:33:19;97839.25;;;21.72;18.62
20023;BME280;10172;42.054;24.546;2024-03-23T13:35:54;97835.84;;;21.38;18.24
20023;BME280;10172;42.054;24.546;2024-03-23T13:38:23;97824.00;;;21.94;16.91
20023;BME280;10172;42.054;24.546;2024-03-23T13:40:59;97827.22;;;22.10;17.34
20023;BME280;10172;42.054;24.546;2024-03-23T13:43:25;97822.44;;;21.89;17.06
20023;BME280;10172;42.054;24.546;2024-03-23T13:45:56;97818.56;;;21.46;15.98
20023;BME280;10172;42.054;24.546;2024-03-23T13:48:23;97816.81;;;21.28;16.97
20023;BME280;10172;42.054;24.546;2024-03-23T13:51:05;97800.22;;;21.70;15.84
20023;BME280;10172;42.054;24.546;2024-03-23T13:53:31;97813.34;;;20.64;17.11